sensor_id;sensor_type;location;lat;lon;timestamp;pressure;altitude;pressure_sealevel;temperature;humidity
11223;BME280;5668;52.012;8.724;2023-05-23T00:01:18;100066.84;;;18.71;98.24
11223;BME280;5668;52.012;8.724;2023-05-23T00:03:47;100070.94;;;18.74;97.82
11223;BME280;5668;52.012;8.724;2023-05-23T00:06:19;100065.19;;;18.70;97.51
11223;BME280;5668;52.012;8.724;2023-05-23T00:08:47;100068.81;;;18.69;97.09
11223;BME280;5668;52.012;8.724;2023-05-23T00:11:14;100070.78;;;18.67;97.00
11223;BME280;5668;52.012;8.724;2023-05-23T00:13:42;100069.94;;;18.67;96.63
11223;BME280;5668;52.012;8.724;2023-05-23T00:16:10;100064.84;;;18.65;96.46
11223;BME280;5668;52.012;8.724;2023-05-23T00:18:37;100060.09;;;18.61;96.37
11223;BME280;5668;52.012;8.724;2023-05-23T00:21:07;100069.94;;;18.59;96.28
11223;BME280;5668;52.012;8.724;2023-05-23T00:23:35;100068.47;;;18.56;96.41
11223;BME280;5668;52.012;8.724;2023-05-23T00:26:03;100068.75;;;18.53;96.26
11223;BME280;5668;52.012;8.724;2023-05-23T00:28:30;100061.03;;;18.51;95.99
11223;BME280;5668;52.012;8.724;2023-05-23T00:30:59;100063.81;;;18.50;95.97
11223;BME280;5668;52.012;8.724;2023-05-23T00:33:26;100054.47;;;18.47;95.92
11223;BME280;5668;52.012;8.724;2023-05-23T00:35:54;100060.88;;;18.45;95.66
11223;BME280;5668;52.012;8.724;2023-05-23T00:38:21;100061.84;;;18.44;95.54
11223;BME280;5668;52.012;8.724;2023-05-23T00:40:49;100063.81;;;18.42;95.33
11223;BME280;5668;52.012;8.724;2023-05-23T00:43:16;100067.28;;;18.42;95.34
11223;BME280;5668;52.012;8.724;2023-05-23T00:45:44;100069.41;;;18.39;95.06
11223;BME280;5668;52.012;8.724;2023-05-23T00:48:12;100064.31;;;18.37;95.37
11223;BME280;5668;52.012;8.724;2023-05-23T00:50:41;100068.75;;;18.37;95.62
11223;BME280;5668;52.012;8.724;2023-05-23T00:53:08;100072.38;;;18.36;95.19
11223;BME280;5668;52.012;8.724;2023-05-23T00:55:35;100068.28;;;18.33;95.39
11223;BME280;5668;52.012;8.724;2023-05-23T00:58:04;100078.28;;;18.30;95.41
11223;BME280;5668;52.012;8.724;2023-05-23T01:00:32;100064.47;;;18.28;95.66
11223;BME280;5668;52.012;8.724;2023-05-23T01:03:00;100076.63;;;18.29;95.89
11223;BME280;5668;52.012;8.724;2023-05-23T01:05:30;100070.53;;;18.28;95.58
11223;BME280;5668;52.012;8.724;2023-05-23T01:07:57;100074.00;;;18.29;95.78
11223;BME280;5668;52.012;8.724;2023-05-23T01:10:26;100074.16;;;18.27;95.82
11223;BME280;5668;52.012;8.724;2023-05-23T01:13:01;100080.25;;;18.28;95.91
11223;BME280;5668;52.012;8.724;2023-05-23T01:15:36;100078.78;;;18.25;95.86
11223;BME280;5668;52.012;8.724;2023-05-23T01:18:09;100080.25;;;18.28;96.14
11223;BME280;5668;52.012;8.724;2023-05-23T01:20:42;100086.84;;;18.24;96.47
11223;BME280;5668;52.012;8.724;2023-05-23T01:23:47;100080.59;;;18.25;96.31
11223;BME280;5668;52.012;8.724;2023-05-23T01:26:37;100086.84;;;18.24;96.49
11223;BME280;5668;52.012;8.724;2023-05-23T01:29:12;100087.81;;;18.23;96.55
11223;BME280;5668;52.012;8.724;2023-05-23T01:31:42;100070.38;;;18.22;96.42
11223;BME280;5668;52.012;8.724;2023-05-23T01:34:12;100082.72;;;18.21;96.50
11223;BME280;5668;52.012;8.724;2023-05-23T01:36:42;100077.44;;;18.21;96.61
11223;BME280;5668;52.012;8.724;2023-05-23T01:39:10;100075.47;;;18.23;96.69
11223;BME280;5668;52.012;8.724;2023-05-23T01:41:37;100077.28;;;18.23;97.03
11223;BME280;5668;52.012;8.724;2023-05-23T01:44:05;100078.94;;;18.24;96.54
11223;BME280;5668;52.012;8.724;2023-05-23T01:46:35;100070.88;;;18.25;96.69
11223;BME280;5668;52.012;8.724;2023-05-23T01:49:05;100076.78;;;18.27;96.40
11223;BME280;5668;52.012;8.724;2023-05-23T01:51:34;100073.38;;;18.27;96.56
11223;BME280;5668;52.012;8.724;2023-05-23T01:54:01;100074.97;;;18.28;96.39
11223;BME280;5668;52.012;8.724;2023-05-23T01:56:29;100080.59;;;18.25;96.59
11223;BME280;5668;52.012;8.724;2023-05-23T01:58:57;100085.03;;;18.24;96.62
11223;BME280;5668;52.012;8.724;2023-05-23T02:01:24;100081.41;;;18.17;96.64
11223;BME280;5668;52.012;8.724;2023-05-23T02:03:52;100078.25;;;18.13;96.67
11223;BME280;5668;52.012;8.724;2023-05-23T02:06:19;100075.28;;;18.08;96.97
11223;BME280;5668;52.012;8.724;2023-05-23T02:08:47;100081.84;;;18.04;97.14
11223;BME280;5668;52.012;8.724;2023-05-23T02:11:14;100081.84;;;17.96;98.00
11223;BME280;5668;52.012;8.724;2023-05-23T02:13:41;100078.53;;;17.94;98.21
11223;BME280;5668;52.012;8.724;2023-05-23T02:16:08;100087.09;;;17.88;98.36
11223;BME280;5668;52.012;8.724;2023-05-23T02:18:36;100090.31;;;17.82;98.72
11223;BME280;5668;52.012;8.724;2023-05-23T02:21:06;100094.56;;;17.75;99.54
11223;BME280;5668;52.012;8.724;2023-05-23T02:23:33;100094.19;;;17.62;99.57
11223;BME280;5668;52.012;8.724;2023-05-23T02:26:00;100095.63;;;17.56;99.82
11223;BME280;5668;52.012;8.724;2023-05-23T02:28:27;100097.38;;;17.48;99.95
11223;BME280;5668;52.012;8.724;2023-05-23T02:30:54;100105.84;;;17.33;99.41
11223;BME280;5668;52.012;8.724;2023-05-23T02:33:22;100107.44;;;17.26;99.26
11223;BME280;5668;52.012;8.724;2023-05-23T02:35:49;100108.41;;;17.25;98.84
11223;BME280;5668;52.012;8.724;2023-05-23T02:38:17;100110.53;;;17.22;98.62
11223;BME280;5668;52.012;8.724;2023-05-23T02:40:45;100110.38;;;17.23;98.67
11223;BME280;5668;52.012;8.724;2023-05-23T02:43:15;100111.66;;;17.19;98.56
11223;BME280;5668;52.012;8.724;2023-05-23T02:45:42;100114.16;;;17.21;98.07
11223;BME280;5668;52.012;8.724;2023-05-23T02:48:09;100121.50;;;17.17;98.06
11223;BME280;5668;52.012;8.724;2023-05-23T02:50:37;100127.03;;;17.14;98.04
11223;BME280;5668;52.012;8.724;2023-05-23T02:53:05;100118.53;;;17.12;98.20
11223;BME280;5668;52.012;8.724;2023-05-23T02:55:33;100117.53;;;17.13;97.87
11223;BME280;5668;52.012;8.724;2023-05-23T02:58:01;100118.66;;;17.11;97.66
11223;BME280;5668;52.012;8.724;2023-05-23T03:00:30;100122.94;;;17.12;97.83
11223;BME280;5668;52.012;8.724;2023-05-23T03:02:58;100122.81;;;17.13;97.60
11223;BME280;5668;52.012;8.724;2023-05-23T03:05:25;100118.19;;;17.15;97.67
11223;BME280;5668;52.012;8.724;2023-05-23T03:07:52;100116.25;;;17.17;97.64
11223;BME280;5668;52.012;8.724;2023-05-23T03:10:20;100114.59;;;17.16;97.37
11223;BME280;5668;52.012;8.724;2023-05-23T03:12:49;100106.03;;;17.14;97.71
11223;BME280;5668;52.012;8.724;2023-05-23T03:15:17;100107.19;;;17.12;97.94
11223;BME280;5668;52.012;8.724;2023-05-23T03:17:44;100107.63;;;17.07;98.13
11223;BME280;5668;52.012;8.724;2023-05-23T03:20:12;100112.75;;;17.09;98.60
11223;BME280;5668;52.012;8.724;2023-05-23T03:22:40;100111.25;;;17.06;98.47
11223;BME280;5668;52.012;8.724;2023-05-23T03:25:10;100110.25;;;17.07;98.95
11223;BME280;5668;52.012;8.724;2023-05-23T03:27:37;100104.03;;;17.08;98.53
11223;BME280;5668;52.012;8.724;2023-05-23T03:30:07;100108.47;;;17.08;98.83
11223;BME280;5668;52.012;8.724;2023-05-23T03:32:34;100106.66;;;17.08;98.85
11223;BME280;5668;52.012;8.724;2023-05-23T03:35:02;100107.19;;;17.12;98.65
11223;BME280;5668;52.012;8.724;2023-05-23T03:37:29;100109.66;;;17.13;98.87
11223;BME280;5668;52.012;8.724;2023-05-23T03:39:56;100108.38;;;17.17;98.54
11223;BME280;5668;52.012;8.724;2023-05-23T03:42:24;100110.16;;;17.17;98.38
11223;BME280;5668;52.012;8.724;2023-05-23T03:44:51;100105.06;;;17.15;98.12
11223;BME280;5668;52.012;8.724;2023-05-23T03:47:20;100107.69;;;17.15;97.82
11223;BME280;5668;52.012;8.724;2023-05-23T03:49:49;100114.59;;;17.16;97.91
11223;BME280;5668;52.012;8.724;2023-05-23T03:52:16;100104.41;;;17.13;97.93
11223;BME280;5668;52.012;8.724;2023-05-23T03:54:43;100108.38;;;17.17;98.03
11223;BME280;5668;52.012;8.724;2023-05-23T03:57:10;100115.28;;;17.18;97.83
11223;BME280;5668;52.012;8.724;2023-05-23T03:59:38;100114.44;;;17.18;97.82
11223;BME280;5668;52.012;8.724;2023-05-23T04:02:05;100115.41;;;17.17;97.91
11223;BME280;5668;52.012;8.724;2023-05-23T04:04:34;100114.09;;;17.13;98.08
11223;BME280;5668;52.012;8.724;2023-05-23T04:07:01;100122.13;;;17.11;98.82
11223;BME280;5668;52.012;8.724;2023-05-23T04:09:30;100118.13;;;17.07;99.03
11223;BME280;5668;52.012;8.724;2023-05-23T04:11:57;100117.50;;;17.05;99.17
11223;BME280;5668;52.012;8.724;2023-05-23T04:14:24;100119.44;;;17.03;99.87
11223;BME280;5668;52.012;8.724;2023-05-23T04:16:52;100124.69;;;17.03;100.00
11223;BME280;5668;52.012;8.724;2023-05-23T04:19:20;100117.78;;;17.02;100.00
11223;BME280;5668;52.012;8.724;2023-05-23T04:21:49;100124.69;;;17.03;100.00
11223;BME280;5668;52.012;8.724;2023-05-23T04:24:16;100131.06;;;17.00;100.00
11223;BME280;5668;52.012;8.724;2023-05-23T04:26:44;100128.75;;;16.97;100.00
11223;BME280;5668;52.012;8.724;2023-05-23T04:29:11;100126.28;;;16.96;100.00
11223;BME280;5668;52.012;8.724;2023-05-23T04:31:38;100128.22;;;16.94;100.00
11223;BME280;5668;52.012;8.724;2023-05-23T04:34:06;100110.81;;;16.93;100.00
11223;BME280;5668;52.012;8.724;2023-05-23T04:36:34;100124.28;;;16.90;100.00
11223;BME280;5668;52.012;8.724;2023-05-23T04:39:04;100121.94;;;16.87;100.00
11223;BME280;5668;52.012;8.724;2023-05-23T04:41:31;100121.63;;;16.90;100.00
11223;BME280;5668;52.012;8.724;2023-05-23T04:43:58;100123.72;;;16.86;100.00
11223;BME280;5668;52.012;8.724;2023-05-23T04:46:26;100121.25;;;16.85;100.00
11223;BME280;5668;52.012;8.724;2023-05-23T04:48:53;100124.88;;;16.84;100.00
11223;BME280;5668;52.012;8.724;2023-05-23T04:51:21;100125.03;;;16.82;100.00
11223;BME280;5668;52.012;8.724;2023-05-23T04:53:49;100125.84;;;16.83;100.00
11223;BME280;5668;52.012;8.724;2023-05-23T04:56:18;100129.13;;;16.85;100.00
11223;BME280;5668;52.012;8.724;2023-05-23T04:58:47;100135.19;;;16.85;100.00
11223;BME280;5668;52.012;8.724;2023-05-23T05:01:14;100138.00;;;16.84;100.00
11223;BME280;5668;52.012;8.724;2023-05-23T05:03:41;100139.81;;;16.83;100.00
11223;BME280;5668;52.012;8.724;2023-05-23T05:06:09;100145.88;;;16.84;100.00
11223;BME280;5668;52.012;8.724;2023-05-23T05:08:36;100144.38;;;16.81;100.00
11223;BME280;5668;52.012;8.724;2023-05-23T05:11:05;100147.28;;;16.78;100.00
11223;BME280;5668;52.012;8.724;2023-05-23T05:13:34;100144.16;;;16.75;100.00
11223;BME280;5668;52.012;8.724;2023-05-23T05:16:01;100145.81;;;16.76;100.00
11223;BME280;5668;52.012;8.724;2023-05-23T05:18:29;100153.97;;;16.73;100.00
11223;BME280;5668;52.012;8.724;2023-05-23T05:20:56;100150.06;;;16.77;100.00
11223;BME280;5668;52.012;8.724;2023-05-23T05:23:25;100155.31;;;16.77;100.00
11223;BME280;5668;52.012;8.724;2023-05-23T05:25:53;100143.69;;;16.79;100.00
11223;BME280;5668;52.012;8.724;2023-05-23T05:28:22;100137.94;;;16.76;100.00
11223;BME280;5668;52.012;8.724;2023-05-23T05:30:51;100143.47;;;16.73;100.00
11223;BME280;5668;52.012;8.724;2023-05-23T05:33:19;100144.44;;;16.72;100.00
11223;BME280;5668;52.012;8.724;2023-05-23T05:35:48;100142.34;;;16.75;100.00
11223;BME280;5668;52.012;8.724;2023-05-23T05:38:16;100153.69;;;16.76;100.00
11223;BME280;5668;52.012;8.724;2023-05-23T05:40:44;100146.16;;;16.81;100.00
11223;BME280;5668;52.012;8.724;2023-05-23T05:43:11;100147.69;;;16.83;100.00
11223;BME280;5668;52.012;8.724;2023-05-23T05:45:38;100143.41;;;16.82;100.00
11223;BME280;5668;52.012;8.724;2023-05-23T05:48:07;100150.06;;;16.77;100.00
11223;BME280;5668;52.012;8.724;2023-05-23T05:50:34;100157.94;;;16.77;100.00
11223;BME280;5668;52.012;8.724;2023-05-23T05:53:01;100152.38;;;16.80;100.00
11223;BME280;5668;52.012;8.724;2023-05-23T05:55:28;100158.25;;;16.74;100.00
11223;BME280;5668;52.012;8.724;2023-05-23T05:57:56;100153.13;;;16.72;100.00
11223;BME280;5668;52.012;8.724;2023-05-23T06:00:23;100155.75;;;16.72;100.00
11223;BME280;5668;52.012;8.724;2023-05-23T06:02:59;100163.41;;;16.66;100.00
11223;BME280;5668;52.012;8.724;2023-05-23T06:05:30;100158.47;;;16.62;100.00
11223;BME280;5668;52.012;8.724;2023-05-23T06:07:57;100156.81;;;16.61;100.00
11223;BME280;5668;52.012;8.724;2023-05-23T06:10:25;100161.09;;;16.62;100.00
11223;BME280;5668;52.012;8.724;2023-05-23T06:12:52;100165.22;;;16.65;100.00
11223;BME280;5668;52.012;8.724;2023-05-23T06:15:19;100165.06;;;16.67;100.00
11223;BME280;5668;52.012;8.724;2023-05-23T06:17:46;100169.34;;;16.68;100.00
11223;BME280;5668;52.012;8.724;2023-05-23T06:20:14;100173.63;;;16.69;100.00
11223;BME280;5668;52.012;8.724;2023-05-23T06:22:46;100172.25;;;16.64;100.00
11223;BME280;5668;52.012;8.724;2023-05-23T06:25:13;100166.03;;;16.66;100.00
11223;BME280;5668;52.012;8.724;2023-05-23T06:27:41;100177.25;;;16.58;100.00
11223;BME280;5668;52.012;8.724;2023-05-23T06:30:10;100181.31;;;16.52;100.00
11223;BME280;5668;52.012;8.724;2023-05-23T06:32:38;100188.34;;;16.52;100.00
11223;BME280;5668;52.012;8.724;2023-05-23T06:35:07;100185.88;;;16.50;100.00
11223;BME280;5668;52.012;8.724;2023-05-23T06:37:34;100185.19;;;16.48;100.00
11223;BME280;5668;52.012;8.724;2023-05-23T06:40:04;100191.41;;;16.47;100.00
11223;BME280;5668;52.012;8.724;2023-05-23T06:42:32;100195.53;;;16.50;100.00
11223;BME280;5668;52.012;8.724;2023-05-23T06:44:59;100198.28;;;16.48;100.00
11223;BME280;5668;52.012;8.724;2023-05-23T06:47:26;100197.09;;;16.43;100.00
11223;BME280;5668;52.012;8.724;2023-05-23T06:49:54;100203.16;;;16.43;100.00
11223;BME280;5668;52.012;8.724;2023-05-23T06:52:21;100207.22;;;16.38;100.00
11223;BME280;5668;52.012;8.724;2023-05-23T06:54:49;100202.47;;;16.41;100.00
11223;BME280;5668;52.012;8.724;2023-05-23T06:57:18;100204.97;;;16.43;100.00
11223;BME280;5668;52.012;8.724;2023-05-23T06:59:45;100211.31;;;16.40;100.00
11223;BME280;5668;52.012;8.724;2023-05-23T07:02:12;100215.59;;;16.41;100.00
11223;BME280;5668;52.012;8.724;2023-05-23T07:04:39;100218.22;;;16.41;100.00
11223;BME280;5668;52.012;8.724;2023-05-23T07:07:07;100219.78;;;16.34;100.00
11223;BME280;5668;52.012;8.724;2023-05-23T07:09:34;100216.06;;;16.37;100.00
11223;BME280;5668;52.012;8.724;2023-05-23T07:12:01;100231.78;;;16.37;100.00
11223;BME280;5668;52.012;8.724;2023-05-23T07:14:29;100230.88;;;16.28;100.00
11223;BME280;5668;52.012;8.724;2023-05-23T07:16:57;100229.22;;;16.27;100.00
11223;BME280;5668;52.012;8.724;2023-05-23T07:19:24;100233.47;;;16.28;100.00
11223;BME280;5668;52.012;8.724;2023-05-23T07:21:51;100239.69;;;16.27;100.00
11223;BME280;5668;52.012;8.724;2023-05-23T07:24:18;100242.59;;;16.24;100.00
11223;BME280;5668;52.012;8.724;2023-05-23T07:26:46;100253.53;;;16.19;100.00
11223;BME280;5668;52.012;8.724;2023-05-23T07:29:13;100255.53;;;16.08;100.00
11223;BME280;5668;52.012;8.724;2023-05-23T07:31:41;100255.41;;;16.00;100.00
11223;BME280;5668;52.012;8.724;2023-05-23T07:34:09;100262.84;;;16.04;100.00
11223;BME280;5668;52.012;8.724;2023-05-23T07:36:36;100276.06;;;16.03;100.00
11223;BME280;5668;52.012;8.724;2023-05-23T07:39:05;100277.03;;;16.02;100.00
11223;BME280;5668;52.012;8.724;2023-05-23T07:41:33;100290.97;;;16.02;100.00
11223;BME280;5668;52.012;8.724;2023-05-23T07:44:00;100288.25;;;15.94;100.00
11223;BME280;5668;52.012;8.724;2023-05-23T07:46:27;100294.63;;;15.92;100.00
11223;BME280;5668;52.012;8.724;2023-05-23T07:48:56;100292.25;;;15.88;100.00
11223;BME280;5668;52.012;8.724;2023-05-23T07:51:23;100297.81;;;15.85;100.00
11223;BME280;5668;52.012;8.724;2023-05-23T07:53:50;100300.56;;;15.84;100.00
11223;BME280;5668;52.012;8.724;2023-05-23T07:56:17;100301.66;;;15.81;100.00
11223;BME280;5668;52.012;8.724;2023-05-23T07:58:44;100302.22;;;15.75;100.00
11223;BME280;5668;52.012;8.724;2023-05-23T08:01:12;100310.34;;;15.72;100.00
11223;BME280;5668;52.012;8.724;2023-05-23T08:03:39;100320.00;;;15.72;100.00
11223;BME280;5668;52.012;8.724;2023-05-23T08:06:08;100315.63;;;15.53;100.00
11223;BME280;5668;52.012;8.724;2023-05-23T08:08:35;100321.94;;;15.31;100.00
11223;BME280;5668;52.012;8.724;2023-05-23T08:11:03;100329.34;;;15.26;100.00
11223;BME280;5668;52.012;8.724;2023-05-23T08:13:30;100332.13;;;15.34;100.00
11223;BME280;5668;52.012;8.724;2023-05-23T08:15:57;100332.69;;;15.38;100.00
11223;BME280;5668;52.012;8.724;2023-05-23T08:18:24;100341.50;;;15.37;100.00
11223;BME280;5668;52.012;8.724;2023-05-23T08:20:52;100346.47;;;15.40;100.00
11223;BME280;5668;52.012;8.724;2023-05-23T08:23:21;100344.28;;;15.45;100.00
11223;BME280;5668;52.012;8.724;2023-05-23T08:25:48;100347.84;;;15.44;100.00
11223;BME280;5668;52.012;8.724;2023-05-23T08:28:15;100352.69;;;15.39;100.00
11223;BME280;5668;52.012;8.724;2023-05-23T08:30:42;100344.53;;;15.42;100.00
11223;BME280;5668;52.012;8.724;2023-05-23T08:33:10;100348.53;;;15.36;100.00
11223;BME280;5668;52.012;8.724;2023-05-23T08:35:37;100355.84;;;15.33;100.00
11223;BME280;5668;52.012;8.724;2023-05-23T08:38:05;100365.63;;;15.31;100.00
11223;BME280;5668;52.012;8.724;2023-05-23T08:40:35;100370.16;;;15.29;100.00
11223;BME280;5668;52.012;8.724;2023-05-23T08:43:03;100368.50;;;15.28;100.00
11223;BME280;5668;52.012;8.724;2023-05-23T08:45:30;100364.66;;;15.32;100.00
11223;BME280;5668;52.012;8.724;2023-05-23T08:48:00;100362.47;;;15.37;100.00
11223;BME280;5668;52.012;8.724;2023-05-23T08:50:29;100379.56;;;15.41;100.00
11223;BME280;5668;52.012;8.724;2023-05-23T08:52:57;100380.25;;;15.33;100.00
11223;BME280;5668;52.012;8.724;2023-05-23T08:55:26;100383.66;;;15.34;100.00
11223;BME280;5668;52.012;8.724;2023-05-23T08:57:55;100386.44;;;15.32;100.00
11223;BME280;5668;52.012;8.724;2023-05-23T09:00:25;100388.38;;;15.30;100.00
11223;BME280;5668;52.012;8.724;2023-05-23T09:02:53;100389.44;;;15.28;100.00
11223;BME280;5668;52.012;8.724;2023-05-23T09:05:20;100392.78;;;15.30;100.00
11223;BME280;5668;52.012;8.724;2023-05-23T09:07:48;100399.66;;;15.31;100.00
11223;BME280;5668;52.012;8.724;2023-05-23T09:10:16;100397.59;;;15.34;100.00
11223;BME280;5668;52.012;8.724;2023-05-23T09:12:46;100406.03;;;15.38;100.00
11223;BME280;5668;52.012;8.724;2023-05-23T09:15:14;100404.34;;;15.37;100.00
11223;BME280;5668;52.012;8.724;2023-05-23T09:17:42;100408.91;;;15.35;100.00
11223;BME280;5668;52.012;8.724;2023-05-23T09:20:13;100406.28;;;15.25;100.00
11223;BME280;5668;52.012;8.724;2023-05-23T09:22:43;100416.44;;;15.19;100.00
11223;BME280;5668;52.012;8.724;2023-05-23T09:25:12;100418.38;;;15.17;100.00
11223;BME280;5668;52.012;8.724;2023-05-23T09:27:40;100424.44;;;15.17;100.00
11223;BME280;5668;52.012;8.724;2023-05-23T09:30:08;100424.84;;;15.13;100.00
11223;BME280;5668;52.012;8.724;2023-05-23T09:32:37;100428.56;;;15.10;100.00
11223;BME280;5668;52.012;8.724;2023-05-23T09:35:06;100439.41;;;15.05;100.00
11223;BME280;5668;52.012;8.724;2023-05-23T09:37:38;100438.75;;;15.03;100.00
11223;BME280;5668;52.012;8.724;2023-05-23T09:40:08;100441.19;;;15.05;100.00
11223;BME280;5668;52.012;8.724;2023-05-23T09:42:42;100442.16;;;14.94;100.00
11223;BME280;5668;52.012;8.724;2023-05-23T09:45:10;100453.28;;;14.96;100.00
11223;BME280;5668;52.012;8.724;2023-05-23T09:47:39;100450.53;;;14.98;100.00
11223;BME280;5668;52.012;8.724;2023-05-23T09:50:15;100456.31;;;14.92;100.00
11223;BME280;5668;52.012;8.724;2023-05-23T09:52:43;100451.47;;;14.87;100.00
11223;BME280;5668;52.012;8.724;2023-05-23T09:55:11;100456.00;;;14.85;100.00
11223;BME280;5668;52.012;8.724;2023-05-23T09:57:40;100460.81;;;14.80;100.00
11223;BME280;5668;52.012;8.724;2023-05-23T10:00:09;100468.38;;;14.83;100.00
11223;BME280;5668;52.012;8.724;2023-05-23T10:02:54;100468.38;;;14.83;100.00
11223;BME280;5668;52.012;8.724;2023-05-23T10:05:35;100464.50;;;14.78;100.00
11223;BME280;5668;52.012;8.724;2023-05-23T10:08:07;100465.72;;;14.73;100.00
11223;BME280;5668;52.012;8.724;2023-05-23T10:13:42;100475.88;;;14.67;100.00
11223;BME280;5668;52.012;8.724;2023-05-23T10:16:18;100474.53;;;14.52;100.00
11223;BME280;5668;52.012;8.724;2023-05-23T10:18:54;100492.84;;;14.52;100.00
11223;BME280;5668;52.012;8.724;2023-05-23T10:21:26;100485.72;;;14.54;100.00
11223;BME280;5668;52.012;8.724;2023-05-23T10:23:58;100486.41;;;14.56;100.00
11223;BME280;5668;52.012;8.724;2023-05-23T10:26:26;100483.38;;;14.51;100.00
11223;BME280;5668;52.012;8.724;2023-05-23T10:28:53;100491.34;;;14.49;100.00
11223;BME280;5668;52.012;8.724;2023-05-23T10:31:22;100490.22;;;14.52;100.00
11223;BME280;5668;52.012;8.724;2023-05-23T10:33:55;100488.00;;;14.47;100.00
11223;BME280;5668;52.012;8.724;2023-05-23T10:36:29;100493.88;;;14.40;100.00
11223;BME280;5668;52.012;8.724;2023-05-23T10:39:03;100501.72;;;14.40;100.00
11223;BME280;5668;52.012;8.724;2023-05-23T10:41:38;100508.34;;;14.44;100.00
11223;BME280;5668;52.012;8.724;2023-05-23T10:44:11;100509.75;;;14.48;100.00
11223;BME280;5668;52.012;8.724;2023-05-23T10:46:52;100513.84;;;14.41;100.00
11223;BME280;5668;52.012;8.724;2023-05-23T10:49:22;100512.53;;;14.35;100.00
11223;BME280;5668;52.012;8.724;2023-05-23T10:52:03;100512.91;;;14.30;100.00
11223;BME280;5668;52.012;8.724;2023-05-23T10:54:34;100521.56;;;14.31;100.00
11223;BME280;5668;52.012;8.724;2023-05-23T10:57:03;100520.97;;;14.39;100.00
11223;BME280;5668;52.012;8.724;2023-05-23T10:59:31;100523.13;;;14.33;100.00
11223;BME280;5668;52.012;8.724;2023-05-23T11:01:59;100524.78;;;14.34;99.89
11223;BME280;5668;52.012;8.724;2023-05-23T11:04:29;100529.53;;;14.41;99.30
11223;BME280;5668;52.012;8.724;2023-05-23T11:06:56;100527.34;;;14.46;99.67
11223;BME280;5668;52.012;8.724;2023-05-23T11:09:24;100530.16;;;14.54;99.43
11223;BME280;5668;52.012;8.724;2023-05-23T11:11:55;100537.38;;;14.61;99.49
11223;BME280;5668;52.012;8.724;2023-05-23T11:14:33;100541.78;;;14.61;98.63
11223;BME280;5668;52.012;8.724;2023-05-23T11:17:15;100540.38;;;14.57;98.03
11223;BME280;5668;52.012;8.724;2023-05-23T11:19:59;100542.28;;;14.55;97.90
11223;BME280;5668;52.012;8.724;2023-05-23T11:22:30;100535.03;;;14.58;98.60
11223;BME280;5668;52.012;8.724;2023-05-23T11:24:58;100536.03;;;14.67;99.20
11223;BME280;5668;52.012;8.724;2023-05-23T11:27:27;100547.22;;;14.69;99.05
11223;BME280;5668;52.012;8.724;2023-05-23T11:30:00;100547.44;;;14.66;97.88
11223;BME280;5668;52.012;8.724;2023-05-23T11:32:28;100543.53;;;14.71;98.40
11223;BME280;5668;52.012;8.724;2023-05-23T11:35:00;100551.63;;;14.68;96.59
11223;BME280;5668;52.012;8.724;2023-05-23T11:37:28;100542.63;;;14.61;95.94
11223;BME280;5668;52.012;8.724;2023-05-23T11:39:55;100547.97;;;14.60;95.27
11223;BME280;5668;52.012;8.724;2023-05-23T11:42:23;100547.97;;;14.60;94.42
11223;BME280;5668;52.012;8.724;2023-05-23T11:44:51;100547.31;;;14.67;94.61
11223;BME280;5668;52.012;8.724;2023-05-23T11:47:18;100554.63;;;14.64;94.17
11223;BME280;5668;52.012;8.724;2023-05-23T11:49:46;100557.69;;;14.69;93.71
11223;BME280;5668;52.012;8.724;2023-05-23T11:52:15;100559.13;;;14.62;91.94
11223;BME280;5668;52.012;8.724;2023-05-23T11:54:42;100558.91;;;14.65;91.62
11223;BME280;5668;52.012;8.724;2023-05-23T11:57:10;100560.41;;;14.67;91.09
11223;BME280;5668;52.012;8.724;2023-05-23T11:59:38;100563.09;;;14.77;91.70
11223;BME280;5668;52.012;8.724;2023-05-23T12:02:06;100559.53;;;14.78;90.78
11223;BME280;5668;52.012;8.724;2023-05-23T12:04:34;100571.38;;;14.82;90.89
11223;BME280;5668;52.012;8.724;2023-05-23T12:07:04;100567.38;;;14.78;90.45
11223;BME280;5668;52.012;8.724;2023-05-23T12:09:41;100572.19;;;14.73;89.21
11223;BME280;5668;52.012;8.724;2023-05-23T12:12:08;100577.56;;;14.81;89.75
11223;BME280;5668;52.012;8.724;2023-05-23T12:14:36;100570.91;;;14.88;90.00
11223;BME280;5668;52.012;8.724;2023-05-23T12:17:10;100576.63;;;14.82;89.39
11223;BME280;5668;52.012;8.724;2023-05-23T12:19:37;100582.81;;;14.81;88.49
11223;BME280;5668;52.012;8.724;2023-05-23T12:22:05;100586.41;;;14.80;88.74
11223;BME280;5668;52.012;8.724;2023-05-23T12:24:34;100596.91;;;14.69;87.89
11223;BME280;5668;52.012;8.724;2023-05-23T12:27:02;100599.09;;;14.64;87.32
11223;BME280;5668;52.012;8.724;2023-05-23T12:29:32;100595.25;;;14.68;87.53
11223;BME280;5668;52.012;8.724;2023-05-23T12:32:01;100587.16;;;14.71;88.79
11223;BME280;5668;52.012;8.724;2023-05-23T12:34:29;100589.03;;;14.80;89.43
11223;BME280;5668;52.012;8.724;2023-05-23T12:36:57;100585.31;;;14.83;89.29
11223;BME280;5668;52.012;8.724;2023-05-23T12:39:25;100589.59;;;14.84;89.23
11223;BME280;5668;52.012;8.724;2023-05-23T12:41:54;100597.31;;;14.85;87.92
11223;BME280;5668;52.012;8.724;2023-05-23T12:44:25;100597.31;;;14.85;85.95
11223;BME280;5668;52.012;8.724;2023-05-23T12:46:55;100596.56;;;14.94;87.33
11223;BME280;5668;52.012;8.724;2023-05-23T12:49:23;100610.28;;;14.87;84.19
11223;BME280;5668;52.012;8.724;2023-05-23T12:51:50;100602.94;;;15.01;84.63
11223;BME280;5668;52.012;8.724;2023-05-23T12:54:17;100606.41;;;15.11;85.25
11223;BME280;5668;52.012;8.724;2023-05-23T12:56:45;100599.47;;;15.22;84.43
11223;BME280;5668;52.012;8.724;2023-05-23T12:59:14;100593.44;;;15.31;82.85
11223;BME280;5668;52.012;8.724;2023-05-23T13:01:41;100600.66;;;15.38;82.87
11223;BME280;5668;52.012;8.724;2023-05-23T13:04:08;100604.34;;;15.36;80.15
11223;BME280;5668;52.012;8.724;2023-05-23T13:06:35;100608.38;;;15.40;79.16